Time;durP1;ratioP1;P1;durP2;ratioP2;P2;SDS_P1;SDS_P2;PMS_P1;PMS_P2;Temp;Humidity;BMP_temperature;BMP_pressure;BME280_temperature;BME280_humidity;BME280_pressure;Samples;Min_cycle;Max_cycle;Signal;HPM_P1;HPM_P2
2021/04/24 00:01:16;;;;;;;12.40;6.35;;;7.90;54.40;;;6.45;51.58;96687.69;4994097;28;20065;-76
2021/04/24 00:03:43;;;;;;;15.18;8.05;;;7.90;54.50;;;6.39;51.83;96688.28;5020117;28;20025;-74
2021/04/24 00:06:08;;;;;;;14.88;7.03;;;7.80;54.40;;;6.32;52.25;96692.44;4975955;28;20025;-76
2021/04/24 00:08:34;;;;;;;17.00;7.28;;;7.80;54.50;;;6.30;52.07;96694.38;5008086;28;20057;-77
2021/04/24 00:11:00;;;;;;;15.13;6.40;;;7.70;54.50;;;6.27;52.28;96689.47;5025002;28;20057;-75
2021/04/24 00:13:26;;;;;;;11.00;5.85;;;7.60;54.90;;;6.23;52.25;96685.50;4990555;28;20061;-77
2021/04/24 00:15:52;;;;;;;14.32;6.97;;;7.60;55.20;;;6.17;52.56;96683.50;5024629;28;20057;-74
2021/04/24 00:18:17;;;;;;;15.25;6.55;;;7.50;55.20;;;6.10;51.98;96683.25;5008140;28;20122;-76
2021/04/24 00:20:43;;;;;;;13.50;6.22;;;7.50;55.20;;;6.03;52.15;96683.00;4991961;28;20029;-75
2021/04/24 00:23:09;;;;;;;17.27;7.00;;;7.50;55.30;;;5.97;52.24;96683.59;5007892;28;20425;-75
2021/04/24 00:25:35;;;;;;;14.48;7.05;;;7.40;54.90;;;5.93;52.30;96681.44;5007506;28;20513;-75
2021/04/24 00:28:01;;;;;;;12.55;6.63;;;7.40;55.10;;;5.87;52.49;96674.94;4972202;28;20441;-74
2021/04/24 00:30:27;;;;;;;12.73;6.78;;;7.30;55.60;;;5.82;52.55;96679.78;4988999;28;20078;-76
2021/04/24 00:32:53;;;;;;;12.27;6.35;;;7.30;55.30;;;5.78;52.64;96665.38;4972879;28;20038;-76
2021/04/24 00:35:19;;;;;;;14.85;5.97;;;7.20;55.30;;;5.75;53.04;96663.06;5005833;28;20391;-74
2021/04/24 00:37:45;;;;;;;15.95;6.68;;;7.20;55.60;;;5.72;53.29;96658.16;4989289;28;20073;-75
2021/04/24 00:40:12;;;;;;;12.43;6.28;;;7.20;55.80;;;5.74;52.80;96658.81;4994338;28;20185;-75
2021/04/24 00:42:37;;;;;;;15.10;6.85;;;7.20;55.90;;;5.73;53.33;96662.41;5027294;28;20072;-75
2021/04/24 00:45:05;;;;;;;12.57;6.30;;;7.10;56.40;;;5.72;53.88;96652.94;5011119;28;20112;-77
2021/04/24 00:47:31;;;;;;;12.30;6.22;;;7.10;56.40;;;5.71;53.06;96652.09;4994997;28;20034;-75
2021/04/24 00:49:56;;;;;;;15.55;6.57;;;7.10;55.90;;;5.69;53.44;96653.22;4995084;28;20250;-74
2021/04/24 00:52:22;;;;;;;13.23;6.18;;;7.10;55.60;;;5.66;53.46;96643.03;4994963;28;20049;-76
2021/04/24 00:54:48;;;;;;;14.18;6.70;;;7.00;56.00;;;5.61;53.24;96648.69;5011371;28;20113;-75
2021/04/24 00:57:14;;;;;;;16.52;6.53;;;7.10;56.20;;;5.58;53.52;96641.16;5027583;28;20053;-75
2021/04/24 00:59:39;;;;;;;15.05;6.78;;;7.00;56.20;;;5.54;53.84;96635.44;4994304;28;20128;-74
2021/04/24 01:02:06;;;;;;;12.23;6.43;;;7.00;56.40;;;5.54;53.98;96630.19;4994630;28;20115;-75
2021/04/24 01:04:32;;;;;;;10.45;6.53;;;7.00;56.40;;;5.49;53.77;96626.41;4978586;28;20052;-76
2021/04/24 01:06:58;;;;;;;15.43;6.75;;;7.00;56.20;;;5.45;54.07;96631.09;5027227;28;20029;-75
2021/04/24 01:09:23;;;;;;;11.57;6.15;;;6.90;56.70;;;5.42;54.40;96623.50;4994620;28;20045;-76
2021/04/24 01:11:49;;;;;;;12.30;6.82;;;6.80;57.10;;;5.39;54.37;96615.16;5003424;23;20481;-68
2021/04/24 01:14:15;;;;;;;13.98;6.35;;;6.90;57.20;;;5.37;54.53;96620.53;4983361;28;20041;-66
2021/04/24 01:16:44;;;;;;;13.93;6.82;;;6.80;57.00;;;5.36;55.42;96621.50;5004755;28;20204;-66
2021/04/24 01:19:12;;;;;;;12.60;6.88;;;6.90;56.90;;;5.32;55.01;96625.34;5002720;28;20037;-66
2021/04/24 01:21:38;;;;;;;11.88;6.65;;;6.70;56.90;;;5.26;54.77;96620.72;4980315;28;20042;-67
2021/04/24 01:24:05;;;;;;;10.60;6.70;;;6.70;57.50;;;5.19;54.61;96628.28;4976871;28;20844;-66
2021/04/24 01:26:31;;;;;;;10.85;6.15;;;6.60;57.10;;;5.14;54.68;96621.84;4992118;28;20398;-66
2021/04/24 01:28:56;;;;;;;13.02;6.88;;;6.60;57.40;;;5.13;54.65;96612.38;4988254;28;20050;-66
2021/04/24 01:31:22;;;;;;;11.68;6.70;;;6.60;57.80;;;5.14;55.09;96614.03;4976399;28;20050;-66
2021/04/24 01:33:48;;;;;;;13.43;6.57;;;6.60;57.90;;;5.12;55.28;96613.34;4972239;28;20034;-66
2021/04/24 01:36:14;;;;;;;14.57;6.97;;;6.60;58.10;;;5.06;55.61;96619.13;4981308;28;20065;-67
2021/04/24 01:38:39;;;;;;;12.18;6.82;;;6.50;58.20;;;5.02;55.63;96615.19;4988327;28;20039;-67
2021/04/24 01:41:05;;;;;;;11.15;6.68;;;6.50;58.30;;;4.99;55.66;96612.84;5005825;28;20062;-67
2021/04/24 01:43:32;;;;;;;11.60;6.45;;;6.40;58.20;;;4.95;55.90;96611.47;4972350;28;20406;-67
2021/04/24 01:45:59;;;;;;;10.02;6.65;;;6.40;58.20;;;4.93;56.25;96614.22;4969684;28;20034;-67
2021/04/24 01:48:24;;;;;;;14.07;6.90;;;6.40;58.40;;;4.92;56.21;96610.78;4987265;28;20099;-67
2021/04/24 01:50:50;;;;;;;9.45;6.13;;;6.40;58.80;;;4.93;56.00;96603.78;4972706;28;20046;-67
2021/04/24 01:53:18;;;;;;;12.23;6.95;;;6.40;58.70;;;4.87;56.64;96602.59;4969602;28;20038;-67
2021/04/24 01:55:44;;;;;;;12.98;6.55;;;6.30;58.90;;;4.82;56.38;96602.19;4967482;28;20080;-67
2021/04/24 01:58:12;;;;;;;9.50;6.60;;;6.20;58.90;;;4.76;56.48;96600.16;4976943;28;20038;-67
2021/04/24 02:00:56;;;;;;;13.65;6.50;;;6.10;59.60;;;4.72;58.69;96616.19;4948215;28;20049;-67
2021/04/24 02:03:22;;;;;;;13.10;6.85;;;6.10;59.90;;;4.62;57.36;96600.56;4971846;28;20034;-67
2021/04/24 02:05:49;;;;;;;13.02;6.68;;;5.90;60.60;;;4.57;57.29;96602.78;4939196;28;20062;-67
2021/04/24 02:08:17;;;;;;;11.10;6.53;;;5.90;60.80;;;4.51;58.18;96600.72;4974090;28;20457;-67
2021/04/24 02:10:47;;;;;;;11.88;6.75;;;5.90;60.70;;;4.48;58.49;96598.41;5006923;28;20425;-67
2021/04/24 02:13:16;;;;;;;16.08;6.72;;;5.90;61.00;;;4.46;58.98;96601.13;4984579;28;20517;-67
2021/04/24 02:15:42;;;;;;;11.23;6.60;;;5.90;61.40;;;4.43;58.67;96595.38;4984362;28;20054;-67
2021/04/24 02:18:08;;;;;;;12.55;6.88;;;5.90;61.50;;;4.39;58.66;96601.84;4990785;28;20123;-67
2021/04/24 02:20:34;;;;;;;8.80;6.35;;;5.80;61.60;;;4.37;58.52;96595.94;4976591;28;20034;-67
2021/04/24 02:23:00;;;;;;;12.90;6.55;;;5.80;61.60;;;4.34;58.93;96597.06;4952257;28;20039;-67
2021/04/24 02:25:26;;;;;;;10.63;6.28;;;5.80;61.70;;;4.33;58.91;96597.19;4969370;28;20180;-67
2021/04/24 02:27:52;;;;;;;12.07;6.00;;;5.80;61.80;;;4.25;59.32;96596.06;4959469;28;20149;-67
2021/04/24 02:30:19;;;;;;;13.13;6.63;;;5.70;61.80;;;4.19;59.49;96586.22;4982958;28;20031;-67
2021/04/24 02:32:45;;;;;;;10.35;6.63;;;5.70;62.10;;;4.17;59.16;96588.13;4957643;28;20113;-67
2021/04/24 02:35:14;;;;;;;10.75;6.15;;;5.70;62.00;;;4.17;59.68;96592.53;4985304;28;20034;-67
2021/04/24 02:37:40;;;;;;;16.63;6.88;;;5.60;62.00;;;4.15;59.01;96602.25;5004328;28;20030;-67
2021/04/24 02:40:13;;;;;;;10.68;6.07;;;5.60;61.80;;;4.13;60.08;96586.78;4997663;28;20077;-67
2021/04/24 02:42:38;;;;;;;12.45;7.15;;;5.60;61.70;;;4.11;59.21;96593.91;4986767;28;20034;-66
2021/04/24 02:45:05;;;;;;;18.05;8.07;;;5.60;61.40;;;4.10;59.37;96583.63;4977706;28;20090;-67
2021/04/24 02:47:32;;;;;;;13.45;7.28;;;5.60;61.30;;;4.06;59.18;96582.22;4986232;28;20045;-67
2021/04/24 02:50:00;;;;;;;14.07;7.68;;;5.40;61.70;;;4.01;59.13;96580.03;4971205;28;20037;-67
2021/04/24 02:52:26;;;;;;;12.73;7.43;;;5.40;61.90;;;3.98;59.21;96585.53;4989614;28;20544;-67
2021/04/24 02:54:53;;;;;;;13.98;7.20;;;5.50;61.80;;;3.96;59.41;96585.66;4971134;28;20042;-67
2021/04/24 02:57:19;;;;;;;10.27;6.70;;;5.40;62.20;;;3.95;59.39;96580.59;4970822;28;20034;-67
2021/04/24 02:59:45;;;;;;;12.13;6.32;;;5.40;62.40;;;3.90;59.52;96577.59;5000458;28;20038;-67
2021/04/24 03:02:11;;;;;;;12.20;6.93;;;5.40;62.30;;;3.86;59.63;96577.03;4994163;28;20039;-67
2021/04/24 03:04:36;;;;;;;11.05;6.68;;;5.40;62.30;;;3.86;60.16;96581.44;4986232;28;20122;-67
2021/04/24 03:07:02;;;;;;;11.95;6.35;;;5.40;62.40;;;3.85;60.32;96564.16;4987550;28;20037;-67
2021/04/24 03:09:28;;;;;;;12.75;6.63;;;5.30;63.00;;;3.83;60.00;96579.06;4986193;28;20121;-70
2021/04/24 03:11:53;;;;;;;11.90;6.80;;;5.30;62.70;;;3.80;60.44;96579.34;4966412;28;20047;-70
2021/04/24 03:14:19;;;;;;;9.85;6.40;;;5.40;62.70;;;3.78;60.41;96570.84;4971256;28;20034;-70
2021/04/24 03:16:45;;;;;;;11.27;6.32;;;5.30;62.80;;;3.74;60.35;96577.28;4986650;28;20030;-67
2021/04/24 03:19:11;;;;;;;11.10;6.43;;;5.20;63.20;;;3.66;60.60;96581.41;4953674;28;20882;-68
2021/04/24 03:21:36;;;;;;;10.77;6.32;;;5.20;63.10;;;3.66;61.09;96580.56;4953476;28;20481;-68
2021/04/24 03:24:04;;;;;;;12.18;6.60;;;5.20;63.00;;;3.62;60.48;96580.03;4991786;28;20038;-67
2021/04/24 03:26:30;;;;;;;12.30;6.90;;;5.10;63.30;;;3.56;60.88;96582.31;4986751;28;20115;-71
2021/04/24 03:28:55;;;;;;;9.43;6.30;;;5.00;63.90;;;3.52;60.63;96584.38;4992355;28;20062;-70
2021/04/24 03:31:21;;;;;;;12.45;6.75;;;5.00;64.00;;;3.47;61.22;96586.56;4952696;28;20038;-67
2021/04/24 03:33:47;;;;;;;12.30;6.35;;;5.00;63.90;;;3.45;61.51;96585.84;4953498;28;20046;-67
2021/04/24 03:36:12;;;;;;;10.70;5.90;;;5.00;64.10;;;3.43;61.57;96579.97;4953406;28;20058;-67
2021/04/24 03:38:38;;;;;;;13.40;6.80;;;5.00;64.00;;;3.45;60.96;96579.84;4976149;28;20038;-67
2021/04/24 03:41:05;;;;;;;13.52;6.47;;;5.00;64.20;;;3.42;61.30;96577.50;4950385;28;20586;-67
2021/04/24 03:43:31;;;;;;;13.07;7.18;;;5.00;64.40;;;3.40;61.80;96575.03;4980216;28;20406;-67
2021/04/24 03:45:56;;;;;;;12.85;6.93;;;4.90;64.50;;;3.38;61.66;96571.72;4977434;28;20030;-67
2021/04/24 03:48:22;;;;;;;15.10;6.53;;;5.00;64.60;;;3.37;62.04;96575.28;4985771;28;20461;-68
2021/04/24 03:50:48;;;;;;;10.98;6.28;;;4.90;64.70;;;3.31;61.93;96570.63;4990914;28;20046;-67
2021/04/24 03:53:14;;;;;;;17.35;6.65;;;4.90;64.40;;;3.29;61.90;96572.53;4979501;28;20533;-68
2021/04/24 03:55:39;;;;;;;10.43;6.43;;;4.90;64.70;;;3.28;62.20;96571.72;4968872;28;20097;-67
2021/04/24 03:58:05;;;;;;;12.15;7.00;;;4.90;64.60;;;3.29;62.40;96575.13;4965396;28;20035;-67
2021/04/24 04:00:33;;;;;;;11.07;6.72;;;4.90;64.50;;;3.29;62.29;96572.53;4994923;28;20038;-67
2021/04/24 04:03:04;;;;;;;11.63;6.47;;;4.90;64.50;;;3.27;62.85;96574.44;4970050;28;20030;-67
2021/04/24 04:05:36;;;;;;;9.73;6.75;;;4.80;64.50;;;3.23;62.23;96576.50;4970395;28;20038;-67
2021/04/24 04:08:03;;;;;;;11.60;6.68;;;4.80;64.70;;;3.20;62.23;96578.53;4954016;28;20037;-67
2021/04/24 04:10:29;;;;;;;13.73;6.95;;;4.70;64.60;;;3.19;62.36;96576.88;4966647;28;20436;-67
2021/04/24 04:12:56;;;;;;;12.68;6.30;;;4.80;64.80;;;3.16;62.48;96572.75;4977723;28;20117;-68
2021/04/24 04:15:24;;;;;;;15.05;7.75;;;4.70;65.10;;;3.17;62.98;96578.78;4978480;28;20038;-67
2021/04/24 04:17:53;;;;;;;12.70;7.35;;;4.80;65.40;;;3.15;62.65;96572.88;4956985;28;20525;-68
2021/04/24 04:20:19;;;;;;;13.68;6.80;;;4.70;65.40;;;3.15;62.72;96585.88;4988471;28;20089;-68
2021/04/24 04:22:44;;;;;;;11.63;7.05;;;4.70;65.30;;;3.14;63.27;96584.22;4970562;28;20050;-73
2021/04/24 04:25:11;;;;;;;11.57;6.57;;;4.80;65.30;;;3.11;63.03;96584.50;4988671;28;20049;-73
2021/04/24 04:27:37;;;;;;;14.73;7.05;;;4.70;65.20;;;3.12;62.96;96591.34;4981375;28;20035;-72
2021/04/24 04:30:07;;;;;;;13.95;7.35;;;4.70;65.30;;;3.07;63.72;96584.75;4997923;28;20037;-68
2021/04/24 04:32:33;;;;;;;12.50;7.07;;;4.70;65.10;;;3.04;62.86;96579.00;4973883;28;20114;-69
2021/04/24 04:34:59;;;;;;;14.00;6.68;;;4.70;64.90;;;3.01;63.28;96590.50;4970127;28;20403;-71
2021/04/24 04:37:25;;;;;;;10.15;7.03;;;4.70;65.00;;;3.04;63.38;96592.81;4954201;28;20449;-68
2021/04/24 04:39:51;;;;;;;11.73;7.22;;;4.70;65.00;;;3.08;63.06;96585.59;4969996;28;20722;-69
2021/04/24 04:42:17;;;;;;;15.38;7.38;;;4.70;65.40;;;3.08;63.71;96586.41;4953910;28;20066;-69
2021/04/24 04:44:42;;;;;;;14.25;7.47;;;4.70;65.40;;;3.09;63.31;96592.44;4970506;28;20406;-68
2021/04/24 04:47:08;;;;;;;13.38;7.15;;;4.80;65.50;;;3.11;63.62;96587.91;4988440;28;20034;-69
2021/04/24 04:49:34;;;;;;;11.07;7.25;;;4.80;65.40;;;3.12;63.22;96586.97;5005811;28;20035;-69
2021/04/24 04:51:59;;;;;;;10.88;7.22;;;4.80;65.50;;;3.15;62.92;96596.28;4956507;28;20022;-69
2021/04/24 04:54:25;;;;;;;17.25;7.47;;;4.80;65.60;;;3.15;64.04;96596.28;4973372;28;20034;-70
2021/04/24 04:56:51;;;;;;;11.20;7.55;;;4.80;65.70;;;3.17;64.17;96599.56;4990435;28;20112;-68
2021/04/24 04:59:17;;;;;;;10.68;7.60;;;4.90;65.90;;;3.17;63.66;96604.75;4973185;28;20518;-68
2021/04/24 05:01:42;;;;;;;13.20;7.60;;;4.90;66.00;;;3.20;63.91;96609.72;4988507;28;20034;-69
2021/04/24 05:04:08;;;;;;;18.42;7.63;;;4.90;66.00;;;3.23;64.30;96607.69;4988558;28;20128;-69
2021/04/24 05:06:34;;;;;;;13.88;7.47;;;5.00;65.60;;;3.26;64.13;96606.59;4973017;28;20514;-68
2021/04/24 05:09:00;;;;;;;14.63;7.00;;;5.00;65.50;;;3.26;63.94;96617.00;4972944;28;20518;-69
2021/04/24 05:11:25;;;;;;;13.70;7.35;;;4.90;65.50;;;3.23;63.74;96628.47;4956411;28;20506;-69
2021/04/24 05:13:51;;;;;;;12.30;7.18;;;4.90;65.80;;;3.23;64.31;96630.25;4956631;28;20606;-68
2021/04/24 05:16:17;;;;;;;16.60;7.95;;;4.90;66.10;;;3.23;64.47;96630.25;4956713;28;20038;-69
2021/04/24 05:18:43;;;;;;;14.27;7.00;;;4.90;66.10;;;3.27;64.28;96631.63;4956951;28;20061;-69
2021/04/24 05:21:09;;;;;;;14.73;7.30;;;5.10;65.90;;;3.32;64.47;96624.25;4956511;28;20038;-69
2021/04/24 05:23:34;;;;;;;14.10;7.68;;;5.10;65.80;;;3.39;64.50;96633.19;4972541;28;20030;-69
2021/04/24 05:26:00;;;;;;;14.13;7.53;;;5.20;65.40;;;3.41;64.23;96628.69;4955444;28;20035;-69
2021/04/24 05:28:26;;;;;;;18.98;7.72;;;5.30;65.30;;;3.52;64.24;96635.56;4956326;28;20089;-68
2021/04/24 05:30:52;;;;;;;13.88;7.35;;;5.50;65.00;;;3.60;64.41;96639.13;4972368;28;20121;-69
2021/04/24 05:33:18;;;;;;;19.52;8.35;;;5.60;64.40;;;3.69;64.21;96648.75;4971984;28;20116;-68
2021/04/24 05:35:43;;;;;;;11.05;7.25;;;5.70;64.20;;;3.79;64.14;96648.78;4972326;28;20549;-70
2021/04/24 05:38:09;;;;;;;12.73;7.38;;;5.90;64.20;;;3.91;63.94;96646.91;4972161;28;20050;-69
2021/04/24 05:40:35;;;;;;;12.05;7.50;;;6.10;63.40;;;4.06;64.18;96647.31;4956465;28;20038;-69
2021/04/24 05:43:00;;;;;;;12.32;7.60;;;6.20;62.50;;;4.17;64.05;96653.22;4955924;28;20170;-70
2021/04/24 05:45:26;;;;;;;13.68;7.50;;;6.40;62.30;;;4.32;63.73;96650.25;4956204;28;20038;-69
2021/04/24 05:47:52;;;;;;;15.93;7.88;;;6.60;61.80;;;4.49;63.58;96649.53;4954907;28;20117;-70
2021/04/24 05:50:21;;;;;;;11.15;7.30;;;6.90;61.20;;;4.69;63.31;96653.78;4984698;28;20078;-69
2021/04/24 05:52:47;;;;;;;12.38;7.60;;;7.10;60.50;;;4.87;62.78;96652.09;4952895;28;20023;-71
2021/04/24 05:55:14;;;;;;;11.82;7.13;;;7.20;59.40;;;5.03;62.69;96653.31;4952752;28;20543;-70
2021/04/24 05:57:39;;;;;;;18.17;7.45;;;7.50;59.10;;;5.22;62.51;96650.66;4952126;28;20027;-69
2021/04/24 06:00:08;;;;;;;12.23;7.25;;;7.80;58.50;;;5.44;62.23;96657.31;4958510;28;20057;-69
2021/04/24 06:02:35;;;;;;;12.55;7.47;;;8.10;58.60;;;5.69;62.04;96648.00;4956046;28;20442;-70
2021/04/24 06:05:03;;;;;;;13.30;6.78;;;8.40;57.70;;;5.92;61.32;96651.06;4955268;28;20038;-69
2021/04/24 06:07:29;;;;;;;11.68;6.75;;;8.70;56.10;;;6.10;61.39;96644.88;4971823;28;20034;-70
2021/04/24 06:09:54;;;;;;;15.27;7.53;;;9.00;55.50;;;6.33;61.19;96652.28;4971492;28;20109;-70
2021/04/24 06:12:20;;;;;;;14.88;8.07;;;9.30;54.60;;;6.55;60.12;96646.63;4955673;28;20562;-70
2021/04/24 06:14:46;;;;;;;12.60;7.32;;;9.50;53.50;;;6.75;60.35;96642.03;4956014;28;20019;-70
2021/04/24 06:17:11;;;;;;;17.42;7.35;;;9.80;52.30;;;7.01;60.00;96647.28;4996213;28;20030;-69
2021/04/24 06:19:37;;;;;;;13.07;7.03;;;10.20;51.50;;;7.26;59.86;96641.25;4987605;28;20089;-70
2021/04/24 06:22:03;;;;;;;18.10;6.97;;;10.60;51.20;;;7.56;59.34;96637.31;5004986;28;20096;-69
2021/04/24 06:24:29;;;;;;;13.85;7.47;;;11.10;50.30;;;7.83;58.67;96635.47;4991041;28;20022;-70
2021/04/24 06:26:54;;;;;;;12.55;6.95;;;11.40;49.20;;;8.06;58.29;96627.81;4987000;28;20106;-70
2021/04/24 06:29:20;;;;;;;13.32;7.55;;;11.60;48.00;;;8.25;57.42;96638.03;4956001;28;20510;-70
2021/04/24 06:31:46;;;;;;;14.20;7.05;;;11.70;47.20;;;8.43;57.27;96636.13;4967432;28;20061;-70
2021/04/24 06:34:12;;;;;;;12.30;6.75;;;11.90;45.90;;;8.59;56.11;96641.38;4969087;28;20088;-72
2021/04/24 06:36:37;;;;;;;16.98;7.95;;;12.10;45.30;;;8.78;56.10;96644.66;4977889;28;20030;-71
2021/04/24 06:39:06;;;;;;;16.05;7.95;;;12.30;45.00;;;8.95;55.39;96638.41;4987062;28;20081;-71
2021/04/24 06:41:33;;;;;;;18.20;8.73;;;12.50;44.20;;;9.12;54.93;96637.44;4971225;28;20030;-70
2021/04/24 06:43:59;;;;;;;22.73;9.43;;;12.70;43.70;;;9.30;54.82;96628.53;4970248;28;20054;-70
2021/04/24 06:46:25;;;;;;;14.45;8.07;;;13.10;43.50;;;9.47;54.59;96627.47;4971021;28;20039;-70
2021/04/24 06:48:50;;;;;;;16.70;7.88;;;13.10;42.60;;;9.64;53.98;96629.06;4973818;28;20176;-72
2021/04/24 06:51:16;;;;;;;18.77;8.40;;;13.40;42.30;;;9.82;53.72;96632.28;4990202;28;20083;-68
2021/04/24 06:53:42;;;;;;;18.52;8.27;;;13.60;42.60;;;9.99;53.39;96635.66;4988170;28;20091;-69
2021/04/24 06:56:08;;;;;;;14.57;8.15;;;13.80;42.60;;;10.17;54.12;96624.06;4987847;28;20453;-69
2021/04/24 06:58:33;;;;;;;14.23;8.13;;;14.00;42.50;;;10.32;53.51;96631.06;4954467;28;20034;-70
2021/04/24 07:00:59;;;;;;;15.55;7.72;;;14.10;43.20;;;10.49;53.38;96628.34;4989883;28;20029;-69
2021/04/24 07:03:25;;;;;;;13.02;7.18;;;14.20;42.30;;;10.71;52.20;96630.97;5003796;28;20034;-69
2021/04/24 07:05:51;;;;;;;14.13;7.47;;;14.70;40.90;;;10.90;51.96;96618.31;5004321;28;20041;-73
2021/04/24 07:08:17;;;;;;;12.40;6.70;;;14.60;41.20;;;11.10;51.66;96613.38;4973947;28;20772;-68
2021/04/24 07:10:42;;;;;;;13.68;7.13;;;14.90;39.00;;;11.32;50.15;96623.00;4970774;28;20090;-73
2021/04/24 07:13:08;;;;;;;14.85;7.10;;;15.20;37.80;;;11.54;49.59;96614.22;4974562;28;20476;-68
2021/04/24 07:15:34;;;;;;;12.75;7.13;;;15.60;37.60;;;11.77;50.32;96614.09;4973544;28;20502;-68
2021/04/24 07:17:59;;;;;;;11.48;6.35;;;15.80;36.10;;;12.00;48.11;96611.38;4988516;28;20095;-69
2021/04/24 07:20:25;;;;;;;25.50;14.35;;;16.10;35.20;;;12.24;48.71;96613.69;4974331;28;20046;-69
2021/04/24 07:22:51;;;;;;;17.75;7.60;;;16.50;35.80;;;12.53;47.62;96612.75;4964930;28;20468;-69
2021/04/24 07:25:17;;;;;;;10.60;6.82;;;17.10;34.40;;;12.78;48.18;96612.34;4989878;28;20046;-69
2021/04/24 07:27:42;;;;;;;13.43;7.80;;;17.30;33.80;;;13.05;47.31;96610.75;4979302;28;20125;-68
2021/04/24 07:30:10;;;;;;;12.90;7.13;;;17.70;34.10;;;13.33;46.51;96608.94;4985339;28;20058;-73
2021/04/24 07:32:36;;;;;;;13.75;7.65;;;18.00;33.80;;;13.59;46.76;96612.78;4962282;28;20053;-70
2021/04/24 07:35:02;;;;;;;18.75;7.32;;;18.20;33.10;;;13.84;45.55;96615.75;4961466;28;20419;-71
2021/04/24 07:37:28;;;;;;;15.43;7.28;;;18.60;32.50;;;14.10;45.44;96614.03;4969738;28;20495;-71
2021/04/24 07:39:54;;;;;;;11.80;7.03;;;18.90;33.00;;;14.38;45.97;96610.44;4953880;28;20050;-70
2021/04/24 07:42:20;;;;;;;12.50;6.93;;;19.10;32.40;;;14.64;45.60;96601.75;4969910;28;20108;-70
2021/04/24 07:44:46;;;;;;;11.77;7.18;;;19.30;31.70;;;14.88;45.09;96603.81;4986585;28;20518;-70
2021/04/24 07:47:11;;;;;;;18.45;7.20;;;19.60;32.00;;;15.11;44.33;96600.75;4985118;28;20646;-71
2021/04/24 07:49:37;;;;;;;10.68;6.55;;;19.80;31.50;;;15.36;43.85;96600.91;4987104;28;20439;-69
2021/04/24 07:52:04;;;;;;;13.50;6.82;;;20.10;31.20;;;15.63;42.86;96599.09;4986047;28;20113;-71
2021/04/24 07:54:31;;;;;;;13.15;6.63;;;20.50;30.10;;;15.87;42.06;96593.09;4993505;28;20440;-71
2021/04/24 07:56:58;;;;;;;15.32;6.68;;;20.60;28.90;;;16.10;42.70;96597.88;4978614;28;20120;-71
2021/04/24 07:59:23;;;;;;;12.52;6.63;;;20.70;28.60;;;16.31;41.91;96594.13;4957806;28;20031;-71
2021/04/24 08:01:49;;;;;;;14.80;6.47;;;20.80;28.80;;;16.58;41.67;96594.75;4989982;28;20046;-71
2021/04/24 08:04:15;;;;;;;21.67;6.60;;;21.30;28.40;;;16.79;40.33;96598.94;4973584;28;20037;-71
2021/04/24 08:06:41;;;;;;;18.90;10.30;;;21.40;27.40;;;17.01;40.66;96602.88;4975655;28;20240;-72
2021/04/24 08:09:07;;;;;;;12.82;6.68;;;21.60;27.60;;;17.21;39.68;96600.03;4997664;28;20060;-71
2021/04/24 08:11:35;;;;;;;12.52;6.75;;;21.80;27.40;;;17.37;37.63;96598.66;4989787;28;20049;-72
2021/04/24 08:14:00;;;;;;;11.65;6.75;;;22.10;26.70;;;17.64;39.18;96593.88;4981411;28;20038;-71
2021/04/24 08:16:26;;;;;;;12.98;6.75;;;22.40;25.30;;;17.79;38.26;96590.88;4982740;28;20034;-71
2021/04/24 08:18:52;;;;;;;11.60;5.95;;;22.50;25.30;;;17.96;37.90;96592.72;4980396;28;20482;-69
2021/04/24 08:21:18;;;;;;;10.65;6.25;;;22.80;25.20;;;18.21;37.96;96589.97;4992956;28;20536;-70
2021/04/24 08:23:44;;;;;;;13.50;6.90;;;23.10;24.70;;;18.41;37.72;96588.88;4981403;28;20169;-69
2021/04/24 08:26:10;;;;;;;13.05;6.80;;;23.40;24.80;;;18.55;36.38;96590.31;4955886;28;20043;-71
2021/04/24 08:28:36;;;;;;;13.82;6.93;;;23.40;24.50;;;18.64;35.93;96589.00;4975878;28;20030;-74
2021/04/24 08:31:02;;;;;;;14.27;6.38;;;23.30;24.50;;;18.73;36.07;96579.63;4972599;28;20073;-71
2021/04/24 08:33:28;;;;;;;11.70;6.20;;;23.30;24.50;;;18.90;35.21;96587.78;4956010;28;20034;-71
2021/04/24 08:35:54;;;;;;;14.52;6.20;;;23.90;24.20;;;19.13;35.92;96584.31;4969958;28;20141;-68
2021/04/24 08:38:19;;;;;;;13.85;6.05;;;24.20;23.30;;;19.32;35.07;96585.84;4967964;28;20038;-68
2021/04/24 08:40:46;;;;;;;13.75;6.45;;;24.40;23.10;;;19.53;34.77;96581.78;4986003;28;20056;-68
2021/04/24 08:43:12;;;;;;;9.98;5.93;;;24.30;21.50;;;19.63;33.93;96575.88;4972342;28;20034;-72
2021/04/24 08:45:38;;;;;;;10.75;5.80;;;24.20;21.40;;;19.74;33.58;96580.41;4991010;28;20084;-67
2021/04/24 08:48:05;;;;;;;12.38;6.28;;;24.30;22.20;;;19.95;32.42;96574.44;4975663;28;20538;-67
2021/04/24 08:50:32;;;;;;;9.90;5.57;;;24.80;21.20;;;20.11;32.26;96579.00;4985408;28;20418;-67
2021/04/24 08:52:58;;;;;;;12.10;5.88;;;25.10;22.60;;;20.39;31.88;96577.41;4979204;28;20560;-75
2021/04/24 08:55:26;;;;;;;12.30;6.72;;;25.60;21.20;;;20.55;30.65;96579.31;4978342;28;20046;-72
2021/04/24 08:57:52;;;;;;;9.90;6.15;;;25.30;20.60;;;20.67;32.10;96577.41;4992341;28;20726;-73
2021/04/24 09:00:28;;;;;;;12.30;6.10;;;25.50;21.80;;;20.80;30.35;96577.09;4952300;28;20038;-72
2021/04/24 09:02:54;;;;;;;11.30;6.53;;;25.50;21.20;;;20.92;31.03;96573.56;4999862;28;20034;-72
2021/04/24 09:05:20;;;;;;;11.13;5.85;;;24.80;20.80;;;20.96;30.25;96572.00;4973048;28;20121;-75
2021/04/24 09:07:46;;;;;;;10.07;4.85;;;25.20;19.30;;;21.13;29.67;96567.47;4991411;28;20069;-63
2021/04/24 09:10:16;;;;;;;8.95;4.97;;;25.60;20.40;;;21.37;28.55;96560.91;4976588;28;20502;-73
2021/04/24 09:12:46;;;;;;;11.50;5.68;;;25.90;19.50;;;21.62;25.74;96551.63;4964106;28;20045;-74
2021/04/24 09:15:14;;;;;;;7.78;5.00;;;26.10;17.90;;;21.81;28.73;96554.81;4968565;28;20611;-74
2021/04/24 09:17:54;;;;;;;10.13;5.72;;;26.30;19.10;;;22.05;26.06;96558.06;4985113;28;20067;-63
2021/04/24 09:20:22;;;;;;;10.57;5.78;;;26.40;18.90;;;22.17;27.89;96558.72;4987130;28;20200;-73
2021/04/24 09:22:59;;;;;;;8.98;6.07;;;26.60;19.10;;;22.30;25.67;96550.31;4982101;28;20502;-72
2021/04/24 09:25:36;;;;;;;8.45;5.53;;;26.10;19.10;;;22.41;26.48;96560.09;4990275;28;20536;-73
2021/04/24 09:28:03;;;;;;;8.60;5.57;;;26.30;18.80;;;22.53;26.88;96557.25;4999340;28;20034;-74
2021/04/24 09:30:32;;;;;;;10.32;5.35;;;26.30;18.50;;;22.61;25.18;96554.09;5009112;28;20112;-73
2021/04/24 09:33:12;;;;;;;9.27;5.53;;;26.20;18.30;;;22.77;24.61;96552.38;5001782;28;20209;-73
2021/04/24 09:36:08;;;;;;;9.05;5.45;;;26.80;18.50;;;23.03;23.96;96546.19;4989372;28;20038;-75
2021/04/24 09:38:36;;;;;;;8.05;5.03;;;27.30;17.20;;;23.15;25.39;96538.78;4988944;28;20038;-74
2021/04/24 09:41:09;;;;;;;8.73;5.07;;;27.10;17.30;;;23.36;25.38;96541.59;4957150;28;20038;-75
2021/04/24 09:43:58;;;;;;;7.80;4.88;;;27.40;17.20;;;23.49;23.01;96538.44;5004200;28;20147;-71
2021/04/24 09:46:44;;;;;;;9.38;5.07;;;27.60;17.20;;;23.72;24.32;96534.56;5008501;28;20038;-69
2021/04/24 09:49:29;;;;;;;10.65;5.78;;;28.10;17.10;;;23.94;22.33;96529.00;4991104;28;20351;-69
2021/04/24 09:52:06;;;;;;;7.80;5.40;;;28.30;16.30;;;24.13;23.12;96524.78;4973960;28;20031;-74
2021/04/24 09:54:38;;;;;;;9.85;5.57;;;28.70;16.90;;;24.31;22.86;96518.94;4994024;28;20509;-75
2021/04/24 09:57:20;;;;;;;10.98;5.47;;;29.00;16.00;;;24.57;22.06;96519.78;5008436;28;20041;-72
2021/04/24 10:00:08;;;;;;;9.70;5.43;;;29.40;16.00;;;24.71;22.73;96525.47;4985767;28;20086;-72
2021/04/24 10:02:38;;;;;;;10.40;5.20;;;29.60;15.80;;;24.92;22.02;96518.19;4968337;28;20121;-72
2021/04/24 10:05:21;;;;;;;8.00;5.32;;;30.10;15.00;;;25.07;21.71;96510.13;5008154;28;20494;-73
2021/04/24 10:07:52;;;;;;;9.95;5.20;;;30.40;14.90;;;25.32;21.94;96506.59;5000843;28;20530;-74
2021/04/24 10:10:24;;;;;;;11.55;5.30;;;30.70;14.40;;;25.44;20.86;96506.31;4993281;28;20026;-74
2021/04/24 10:12:55;;;;;;;8.40;5.65;;;30.50;14.50;;;25.53;21.13;96504.66;5008351;28;20030;-73
2021/04/24 10:15:37;;;;;;;8.77;5.05;;;30.60;14.90;;;25.55;20.21;96497.91;4967955;28;20494;-69
2021/04/24 10:18:04;;;;;;;14.15;5.07;;;31.30;13.60;;;25.84;22.22;96498.13;4953682;28;20031;-73
2021/04/24 10:20:31;;;;;;;10.40;5.85;;;31.80;14.30;;;26.20;22.63;96493.34;4972796;28;20040;-74
2021/04/24 10:22:57;;;;;;;9.65;5.57;;;32.60;13.60;;;26.46;22.28;96493.19;5009867;28;20125;-74